sensor_id;sensor_type;location;lat;lon;timestamp;temperature;humidity
31003;DHT22;23051;-6.372;106.786;2023-06-04T00:01:50;29.50;75.00
31003;DHT22;23051;-6.372;106.786;2023-06-04T00:03:54;29.50;75.80
31003;DHT22;23051;-6.372;106.786;2023-06-04T00:05:55;29.50;75.00
31003;DHT22;23051;-6.372;106.786;2023-06-04T00:07:57;29.50;75.10
31003;DHT22;23051;-6.372;106.786;2023-06-04T00:09:58;29.50;75.10
31003;DHT22;23051;-6.372;106.786;2023-06-04T00:12:02;29.50;75.10
31003;DHT22;23051;-6.372;106.786;2023-06-04T00:14:06;29.50;75.10
31003;DHT22;23051;-6.372;106.786;2023-06-04T00:16:08;29.60;75.10
31003;DHT22;23051;-6.372;106.786;2023-06-04T00:18:13;29.60;75.00
31003;DHT22;23051;-6.372;106.786;2023-06-04T00:20:15;29.60;74.90
31003;DHT22;23051;-6.372;106.786;2023-06-04T00:22:17;29.70;74.80
31003;DHT22;23051;-6.372;106.786;2023-06-04T00:24:20;29.70;74.70
31003;DHT22;23051;-6.372;106.786;2023-06-04T00:26:27;29.80;75.40
31003;DHT22;23051;-6.372;106.786;2023-06-04T00:28:31;29.80;74.40
31003;DHT22;23051;-6.372;106.786;2023-06-04T00:30:32;29.90;74.40
31003;DHT22;23051;-6.372;106.786;2023-06-04T00:32:38;29.80;74.30
31003;DHT22;23051;-6.372;106.786;2023-06-04T00:34:43;29.90;74.40
31003;DHT22;23051;-6.372;106.786;2023-06-04T00:36:47;29.90;74.30
31003;DHT22;23051;-6.372;106.786;2023-06-04T00:38:48;29.90;74.20
31003;DHT22;23051;-6.372;106.786;2023-06-04T00:40:54;30.00;74.20
31003;DHT22;23051;-6.372;106.786;2023-06-04T00:43:01;29.90;74.10
31003;DHT22;23051;-6.372;106.786;2023-06-04T00:45:05;30.00;74.10
31003;DHT22;23051;-6.372;106.786;2023-06-04T00:47:15;30.00;74.10
31003;DHT22;23051;-6.372;106.786;2023-06-04T00:49:20;30.00;74.10
31003;DHT22;23051;-6.372;106.786;2023-06-04T00:51:25;30.00;74.10
31003;DHT22;23051;-6.372;106.786;2023-06-04T00:53:27;30.10;74.00
31003;DHT22;23051;-6.372;106.786;2023-06-04T00:55:28;30.10;74.00
31003;DHT22;23051;-6.372;106.786;2023-06-04T00:57:32;30.10;74.00
31003;DHT22;23051;-6.372;106.786;2023-06-04T00:59:35;30.10;73.90
31003;DHT22;23051;-6.372;106.786;2023-06-04T01:03:46;30.20;73.80
31003;DHT22;23051;-6.372;106.786;2023-06-04T01:06:10;30.20;73.70
31003;DHT22;23051;-6.372;106.786;2023-06-04T01:08:13;30.30;73.70
31003;DHT22;23051;-6.372;106.786;2023-06-04T01:10:19;30.30;73.60
31003;DHT22;23051;-6.372;106.786;2023-06-04T01:12:23;30.30;73.40
31003;DHT22;23051;-6.372;106.786;2023-06-04T01:14:28;30.40;73.40
31003;DHT22;23051;-6.372;106.786;2023-06-04T01:16:35;30.40;73.30
31003;DHT22;23051;-6.372;106.786;2023-06-04T01:18:40;30.40;73.20
31003;DHT22;23051;-6.372;106.786;2023-06-04T01:20:43;30.50;73.20
31003;DHT22;23051;-6.372;106.786;2023-06-04T01:25:02;30.50;73.00
31003;DHT22;23051;-6.372;106.786;2023-06-04T01:27:07;30.50;73.00
31003;DHT22;23051;-6.372;106.786;2023-06-04T01:29:12;30.50;73.00
31003;DHT22;23051;-6.372;106.786;2023-06-04T01:31:17;30.50;72.90
31003;DHT22;23051;-6.372;106.786;2023-06-04T01:33:22;30.50;73.10
31003;DHT22;23051;-6.372;106.786;2023-06-04T01:35:24;30.50;73.10
31003;DHT22;23051;-6.372;106.786;2023-06-04T01:37:28;30.60;73.00
31003;DHT22;23051;-6.372;106.786;2023-06-04T01:39:30;30.60;72.90
31003;DHT22;23051;-6.372;106.786;2023-06-04T01:41:34;30.70;72.90
31003;DHT22;23051;-6.372;106.786;2023-06-04T01:43:35;30.70;72.70
31003;DHT22;23051;-6.372;106.786;2023-06-04T01:45:37;30.80;72.50
31003;DHT22;23051;-6.372;106.786;2023-06-04T01:47:41;30.90;72.40
31003;DHT22;23051;-6.372;106.786;2023-06-04T01:49:45;30.90;72.40
31003;DHT22;23051;-6.372;106.786;2023-06-04T01:51:51;30.80;72.40
31003;DHT22;23051;-6.372;106.786;2023-06-04T01:53:53;30.80;72.60
31003;DHT22;23051;-6.372;106.786;2023-06-04T01:55:54;30.80;72.70
31003;DHT22;23051;-6.372;106.786;2023-06-04T01:58:00;30.80;72.60
31003;DHT22;23051;-6.372;106.786;2023-06-04T02:00:03;30.80;72.50
31003;DHT22;23051;-6.372;106.786;2023-06-04T02:02:15;30.90;72.50
31003;DHT22;23051;-6.372;106.786;2023-06-04T02:04:22;30.90;72.40
31003;DHT22;23051;-6.372;106.786;2023-06-04T02:06:24;31.00;72.30
31003;DHT22;23051;-6.372;106.786;2023-06-04T02:08:33;31.00;73.10
31003;DHT22;23051;-6.372;106.786;2023-06-04T02:10:37;31.10;72.10
31003;DHT22;23051;-6.372;106.786;2023-06-04T02:12:40;31.10;72.00
31003;DHT22;23051;-6.372;106.786;2023-06-04T02:14:45;31.20;72.00
31003;DHT22;23051;-6.372;106.786;2023-06-04T02:16:48;31.20;72.00
31003;DHT22;23051;-6.372;106.786;2023-06-04T02:18:51;31.30;71.90
31003;DHT22;23051;-6.372;106.786;2023-06-04T02:20:57;31.30;71.90
31003;DHT22;23051;-6.372;106.786;2023-06-04T02:23:02;31.30;71.90
31003;DHT22;23051;-6.372;106.786;2023-06-04T02:27:11;31.40;71.80
31003;DHT22;23051;-6.372;106.786;2023-06-04T02:29:15;31.40;71.60
31003;DHT22;23051;-6.372;106.786;2023-06-04T02:31:19;31.40;71.50
31003;DHT22;23051;-6.372;106.786;2023-06-04T02:33:23;31.40;71.40
31003;DHT22;23051;-6.372;106.786;2023-06-04T02:35:26;31.50;71.50
31003;DHT22;23051;-6.372;106.786;2023-06-04T02:37:30;31.50;71.50
31003;DHT22;23051;-6.372;106.786;2023-06-04T02:39:34;31.50;71.50
31003;DHT22;23051;-6.372;106.786;2023-06-04T02:41:35;31.60;71.40
31003;DHT22;23051;-6.372;106.786;2023-06-04T02:43:37;31.60;71.40
31003;DHT22;23051;-6.372;106.786;2023-06-04T02:45:41;31.60;71.30
31003;DHT22;23051;-6.372;106.786;2023-06-04T02:47:42;31.70;71.20
31003;DHT22;23051;-6.372;106.786;2023-06-04T02:49:44;31.80;71.20
31003;DHT22;23051;-6.372;106.786;2023-06-04T02:51:48;31.70;71.20
31003;DHT22;23051;-6.372;106.786;2023-06-04T02:53:51;31.70;71.20
31003;DHT22;23051;-6.372;106.786;2023-06-04T02:58:07;31.80;71.20
31003;DHT22;23051;-6.372;106.786;2023-06-04T03:00:11;31.80;71.20
31003;DHT22;23051;-6.372;106.786;2023-06-04T03:02:16;31.70;71.20
31003;DHT22;23051;-6.372;106.786;2023-06-04T03:04:19;31.70;71.30
31003;DHT22;23051;-6.372;106.786;2023-06-04T03:06:28;31.70;71.40
31003;DHT22;23051;-6.372;106.786;2023-06-04T03:08:32;31.70;71.40
31003;DHT22;23051;-6.372;106.786;2023-06-04T03:10:34;31.70;71.20
31003;DHT22;23051;-6.372;106.786;2023-06-04T03:12:38;31.70;71.30
31003;DHT22;23051;-6.372;106.786;2023-06-04T03:14:41;31.70;71.20
31003;DHT22;23051;-6.372;106.786;2023-06-04T03:16:45;31.90;71.10
31003;DHT22;23051;-6.372;106.786;2023-06-04T03:18:50;32.00;70.90
31003;DHT22;23051;-6.372;106.786;2023-06-04T03:20:54;32.10;70.70
31003;DHT22;23051;-6.372;106.786;2023-06-04T03:22:55;32.10;70.40
31003;DHT22;23051;-6.372;106.786;2023-06-04T03:24:57;32.10;70.40
31003;DHT22;23051;-6.372;106.786;2023-06-04T03:27:01;32.20;70.40
31003;DHT22;23051;-6.372;106.786;2023-06-04T03:29:03;32.30;70.40
31003;DHT22;23051;-6.372;106.786;2023-06-04T03:31:07;32.20;70.20
31003;DHT22;23051;-6.372;106.786;2023-06-04T03:33:13;32.20;70.20
31003;DHT22;23051;-6.372;106.786;2023-06-04T03:35:15;32.20;70.40
31003;DHT22;23051;-6.372;106.786;2023-06-04T03:37:19;32.20;70.40
31003;DHT22;23051;-6.372;106.786;2023-06-04T03:39:23;32.20;70.30
31003;DHT22;23051;-6.372;106.786;2023-06-04T03:41:25;32.50;70.00
31003;DHT22;23051;-6.372;106.786;2023-06-04T03:43:31;32.80;69.30
31003;DHT22;23051;-6.372;106.786;2023-06-04T03:45:35;33.10;68.70
31003;DHT22;23051;-6.372;106.786;2023-06-04T03:47:39;33.60;67.70
31003;DHT22;23051;-6.372;106.786;2023-06-04T03:49:43;34.00;66.50
31003;DHT22;23051;-6.372;106.786;2023-06-04T03:51:57;34.40;65.70
31003;DHT22;23051;-6.372;106.786;2023-06-04T03:53:59;34.70;65.20
31003;DHT22;23051;-6.372;106.786;2023-06-04T03:56:03;34.80;64.80
31003;DHT22;23051;-6.372;106.786;2023-06-04T03:58:10;35.00;64.50
31003;DHT22;23051;-6.372;106.786;2023-06-04T04:00:14;35.00;64.40
31003;DHT22;23051;-6.372;106.786;2023-06-04T04:02:18;35.00;64.60
31003;DHT22;23051;-6.372;106.786;2023-06-04T04:04:26;35.10;64.70
31003;DHT22;23051;-6.372;106.786;2023-06-04T04:06:33;34.90;65.00
31003;DHT22;23051;-6.372;106.786;2023-06-04T04:08:39;35.20;65.00
31003;DHT22;23051;-6.372;106.786;2023-06-04T04:10:47;35.30;64.70
31003;DHT22;23051;-6.372;106.786;2023-06-04T04:12:49;35.50;64.30
31003;DHT22;23051;-6.372;106.786;2023-06-04T04:14:58;35.70;64.00
31003;DHT22;23051;-6.372;106.786;2023-06-04T04:17:02;35.90;63.60
31003;DHT22;23051;-6.372;106.786;2023-06-04T04:19:04;35.90;63.30
31003;DHT22;23051;-6.372;106.786;2023-06-04T04:21:10;35.90;63.40
31003;DHT22;23051;-6.372;106.786;2023-06-04T04:23:14;35.60;64.10
31003;DHT22;23051;-6.372;106.786;2023-06-04T04:25:20;35.30;64.70
31003;DHT22;23051;-6.372;106.786;2023-06-04T04:27:26;35.10;65.60
31003;DHT22;23051;-6.372;106.786;2023-06-04T04:29:34;34.80;66.00
31003;DHT22;23051;-6.372;106.786;2023-06-04T04:31:38;34.70;66.40
31003;DHT22;23051;-6.372;106.786;2023-06-04T04:33:42;34.70;66.70
31003;DHT22;23051;-6.372;106.786;2023-06-04T04:35:49;34.60;66.80
31003;DHT22;23051;-6.372;106.786;2023-06-04T04:37:54;34.50;66.80
31003;DHT22;23051;-6.372;106.786;2023-06-04T04:41:57;34.40;67.20
31003;DHT22;23051;-6.372;106.786;2023-06-04T04:44:03;34.40;67.20
31003;DHT22;23051;-6.372;106.786;2023-06-04T04:46:06;34.40;67.20
31003;DHT22;23051;-6.372;106.786;2023-06-04T04:48:08;34.40;67.20
31003;DHT22;23051;-6.372;106.786;2023-06-04T04:50:13;34.50;67.20
31003;DHT22;23051;-6.372;106.786;2023-06-04T04:52:15;34.60;67.00
31003;DHT22;23051;-6.372;106.786;2023-06-04T04:54:16;34.60;66.80
31003;DHT22;23051;-6.372;106.786;2023-06-04T04:56:21;34.60;66.50
31003;DHT22;23051;-6.372;106.786;2023-06-04T04:58:22;34.70;66.60
31003;DHT22;23051;-6.372;106.786;2023-06-04T05:00:26;34.70;66.50
31003;DHT22;23051;-6.372;106.786;2023-06-04T05:02:33;34.70;66.60
31003;DHT22;23051;-6.372;106.786;2023-06-04T05:04:37;34.70;66.60
31003;DHT22;23051;-6.372;106.786;2023-06-04T05:06:41;34.70;66.60
31003;DHT22;23051;-6.372;106.786;2023-06-04T05:08:47;34.70;66.70
31003;DHT22;23051;-6.372;106.786;2023-06-04T05:10:51;34.70;66.60
31003;DHT22;23051;-6.372;106.786;2023-06-04T05:12:59;34.80;66.60
31003;DHT22;23051;-6.372;106.786;2023-06-04T05:15:06;34.80;66.70
31003;DHT22;23051;-6.372;106.786;2023-06-04T05:17:10;34.80;66.60
31003;DHT22;23051;-6.372;106.786;2023-06-04T05:19:14;34.80;66.60
31003;DHT22;23051;-6.372;106.786;2023-06-04T05:21:15;34.80;66.50
31003;DHT22;23051;-6.372;106.786;2023-06-04T05:25:25;34.90;66.30
31003;DHT22;23051;-6.372;106.786;2023-06-04T05:27:33;34.90;66.40
31003;DHT22;23051;-6.372;106.786;2023-06-04T05:29:34;34.90;66.40
31003;DHT22;23051;-6.372;106.786;2023-06-04T05:31:41;35.00;66.20
31003;DHT22;23051;-6.372;106.786;2023-06-04T05:33:45;35.40;65.50
31003;DHT22;23051;-6.372;106.786;2023-06-04T05:35:51;35.80;64.70
31003;DHT22;23051;-6.372;106.786;2023-06-04T05:37:54;36.20;63.60
31003;DHT22;23051;-6.372;106.786;2023-06-04T05:40:01;36.50;62.80
31003;DHT22;23051;-6.372;106.786;2023-06-04T05:42:03;36.60;62.40
31003;DHT22;23051;-6.372;106.786;2023-06-04T05:44:10;36.80;62.20
31003;DHT22;23051;-6.372;106.786;2023-06-04T05:48:14;37.50;60.70
31003;DHT22;23051;-6.372;106.786;2023-06-04T05:50:17;37.60;60.50
31003;DHT22;23051;-6.372;106.786;2023-06-04T05:52:19;37.70;60.50
31003;DHT22;23051;-6.372;106.786;2023-06-04T05:54:23;37.80;60.30
31003;DHT22;23051;-6.372;106.786;2023-06-04T05:56:29;37.90;60.20
31003;DHT22;23051;-6.372;106.786;2023-06-04T05:58:35;38.10;60.00
31003;DHT22;23051;-6.372;106.786;2023-06-04T06:00:37;38.20;59.90
31003;DHT22;23051;-6.372;106.786;2023-06-04T06:02:38;38.30;59.70
31003;DHT22;23051;-6.372;106.786;2023-06-04T06:04:45;38.40;59.60
31003;DHT22;23051;-6.372;106.786;2023-06-04T06:06:46;38.50;59.40
31003;DHT22;23051;-6.372;106.786;2023-06-04T06:08:49;38.60;59.30
31003;DHT22;23051;-6.372;106.786;2023-06-04T06:10:51;38.70;59.30
31003;DHT22;23051;-6.372;106.786;2023-06-04T06:12:55;39.00;58.90
31003;DHT22;23051;-6.372;106.786;2023-06-04T06:14:58;39.10;58.50
31003;DHT22;23051;-6.372;106.786;2023-06-04T06:17:05;39.10;58.40
31003;DHT22;23051;-6.372;106.786;2023-06-04T06:19:10;38.80;58.90
31003;DHT22;23051;-6.372;106.786;2023-06-04T06:21:14;38.50;59.50
31003;DHT22;23051;-6.372;106.786;2023-06-04T06:23:18;38.50;59.90
31003;DHT22;23051;-6.372;106.786;2023-06-04T06:25:22;38.40;60.10
31003;DHT22;23051;-6.372;106.786;2023-06-04T06:27:23;38.40;60.30
31003;DHT22;23051;-6.372;106.786;2023-06-04T06:29:27;38.60;60.00
31003;DHT22;23051;-6.372;106.786;2023-06-04T06:31:33;38.80;59.60
31003;DHT22;23051;-6.372;106.786;2023-06-04T06:33:37;39.00;59.10
31003;DHT22;23051;-6.372;106.786;2023-06-04T06:35:47;39.10;58.90
31003;DHT22;23051;-6.372;106.786;2023-06-04T06:37:51;38.90;59.10
31003;DHT22;23051;-6.372;106.786;2023-06-04T06:39:54;38.60;59.80
31003;DHT22;23051;-6.372;106.786;2023-06-04T06:42:01;38.50;60.20
31003;DHT22;23051;-6.372;106.786;2023-06-04T06:44:19;38.30;60.70
31003;DHT22;23051;-6.372;106.786;2023-06-04T06:46:42;38.30;60.50
31003;DHT22;23051;-6.372;106.786;2023-06-04T06:49:05;38.30;60.70
31003;DHT22;23051;-6.372;106.786;2023-06-04T06:51:38;38.40;60.60
31003;DHT22;23051;-6.372;106.786;2023-06-04T06:54:02;38.30;60.80
31003;DHT22;23051;-6.372;106.786;2023-06-04T06:56:04;37.80;61.30
31003;DHT22;23051;-6.372;106.786;2023-06-04T06:58:05;37.60;62.20
31003;DHT22;23051;-6.372;106.786;2023-06-04T07:00:07;37.50;62.50
31003;DHT22;23051;-6.372;106.786;2023-06-04T07:02:14;37.60;62.40
31003;DHT22;23051;-6.372;106.786;2023-06-04T07:04:18;37.70;62.30
31003;DHT22;23051;-6.372;106.786;2023-06-04T07:06:20;37.50;62.30
31003;DHT22;23051;-6.372;106.786;2023-06-04T07:08:24;37.50;62.70
31003;DHT22;23051;-6.372;106.786;2023-06-04T07:10:25;37.40;62.90
31003;DHT22;23051;-6.372;106.786;2023-06-04T07:12:33;37.40;63.00
31003;DHT22;23051;-6.372;106.786;2023-06-04T07:14:35;37.30;63.00
31003;DHT22;23051;-6.372;106.786;2023-06-04T07:16:39;37.00;63.50
31003;DHT22;23051;-6.372;106.786;2023-06-04T07:18:42;36.60;64.20
31003;DHT22;23051;-6.372;106.786;2023-06-04T07:20:44;36.30;65.30
31003;DHT22;23051;-6.372;106.786;2023-06-04T07:22:50;36.00;66.00
31003;DHT22;23051;-6.372;106.786;2023-06-04T07:24:56;35.90;66.50
31003;DHT22;23051;-6.372;106.786;2023-06-04T07:27:00;35.80;66.60
31003;DHT22;23051;-6.372;106.786;2023-06-04T07:29:04;35.90;66.50
31003;DHT22;23051;-6.372;106.786;2023-06-04T07:31:06;36.00;65.90
31003;DHT22;23051;-6.372;106.786;2023-06-04T07:35:11;36.20;65.20
31003;DHT22;23051;-6.372;106.786;2023-06-04T07:37:18;36.10;65.40
31003;DHT22;23051;-6.372;106.786;2023-06-04T07:39:22;35.90;65.90
31003;DHT22;23051;-6.372;106.786;2023-06-04T07:41:24;36.20;65.60
31003;DHT22;23051;-6.372;106.786;2023-06-04T07:43:29;36.30;64.90
31003;DHT22;23051;-6.372;106.786;2023-06-04T07:45:33;36.30;64.80
31003;DHT22;23051;-6.372;106.786;2023-06-04T07:47:36;36.20;64.80
31003;DHT22;23051;-6.372;106.786;2023-06-04T07:49:46;36.30;65.10
31003;DHT22;23051;-6.372;106.786;2023-06-04T07:51:47;36.30;65.00
31003;DHT22;23051;-6.372;106.786;2023-06-04T07:53:57;36.10;65.20
31003;DHT22;23051;-6.372;106.786;2023-06-04T07:55:58;36.00;65.60
31003;DHT22;23051;-6.372;106.786;2023-06-04T07:58:00;36.00;65.70
31003;DHT22;23051;-6.372;106.786;2023-06-04T08:00:04;36.00;65.50
31003;DHT22;23051;-6.372;106.786;2023-06-04T08:02:06;36.10;65.20
31003;DHT22;23051;-6.372;106.786;2023-06-04T08:04:10;36.10;65.20
31003;DHT22;23051;-6.372;106.786;2023-06-04T08:06:11;36.00;65.50
31003;DHT22;23051;-6.372;106.786;2023-06-04T08:08:17;36.00;65.60
31003;DHT22;23051;-6.372;106.786;2023-06-04T08:10:22;35.90;65.70
31003;DHT22;23051;-6.372;106.786;2023-06-04T08:12:28;35.80;65.90
31003;DHT22;23051;-6.372;106.786;2023-06-04T08:14:29;35.70;66.00
31003;DHT22;23051;-6.372;106.786;2023-06-04T08:16:32;35.60;66.40
31003;DHT22;23051;-6.372;106.786;2023-06-04T08:18:38;35.50;66.50
31003;DHT22;23051;-6.372;106.786;2023-06-04T08:20:40;35.40;66.60
31003;DHT22;23051;-6.372;106.786;2023-06-04T08:22:44;35.40;66.70
31003;DHT22;23051;-6.372;106.786;2023-06-04T08:24:48;35.30;66.80
31003;DHT22;23051;-6.372;106.786;2023-06-04T08:26:52;35.30;66.90
31003;DHT22;23051;-6.372;106.786;2023-06-04T08:28:56;35.30;66.90
31003;DHT22;23051;-6.372;106.786;2023-06-04T08:30:57;35.20;67.10
31003;DHT22;23051;-6.372;106.786;2023-06-04T08:32:59;35.10;67.30
31003;DHT22;23051;-6.372;106.786;2023-06-04T08:35:00;35.00;67.20
31003;DHT22;23051;-6.372;106.786;2023-06-04T08:37:04;35.00;67.40
31003;DHT22;23051;-6.372;106.786;2023-06-04T08:39:08;34.90;67.50
31003;DHT22;23051;-6.372;106.786;2023-06-04T08:41:24;35.00;67.60
31003;DHT22;23051;-6.372;106.786;2023-06-04T08:43:26;35.10;67.20
31003;DHT22;23051;-6.372;106.786;2023-06-04T08:45:33;35.10;67.00
31003;DHT22;23051;-6.372;106.786;2023-06-04T08:47:52;34.90;67.30
31003;DHT22;23051;-6.372;106.786;2023-06-04T08:49:58;35.00;67.20
31003;DHT22;23051;-6.372;106.786;2023-06-04T08:52:03;35.00;67.10
31003;DHT22;23051;-6.372;106.786;2023-06-04T08:54:09;35.00;67.10
31003;DHT22;23051;-6.372;106.786;2023-06-04T08:56:13;34.90;67.10
31003;DHT22;23051;-6.372;106.786;2023-06-04T08:58:15;34.80;67.30
31003;DHT22;23051;-6.372;106.786;2023-06-04T09:00:20;34.90;67.40
31003;DHT22;23051;-6.372;106.786;2023-06-04T09:02:27;34.80;67.20
31003;DHT22;23051;-6.372;106.786;2023-06-04T09:04:29;34.80;67.40
31003;DHT22;23051;-6.372;106.786;2023-06-04T09:06:34;34.70;67.50
31003;DHT22;23051;-6.372;106.786;2023-06-04T09:08:38;34.60;67.80
31003;DHT22;23051;-6.372;106.786;2023-06-04T09:10:46;34.50;68.00
31003;DHT22;23051;-6.372;106.786;2023-06-04T09:13:00;34.40;68.30
31003;DHT22;23051;-6.372;106.786;2023-06-04T09:15:04;34.40;68.40
31003;DHT22;23051;-6.372;106.786;2023-06-04T09:17:08;34.40;68.20
31003;DHT22;23051;-6.372;106.786;2023-06-04T09:19:12;34.50;67.90
31003;DHT22;23051;-6.372;106.786;2023-06-04T09:21:15;34.60;67.60
31003;DHT22;23051;-6.372;106.786;2023-06-04T09:23:17;34.60;68.20
31003;DHT22;23051;-6.372;106.786;2023-06-04T09:27:36;34.50;67.50
31003;DHT22;23051;-6.372;106.786;2023-06-04T09:31:59;34.10;68.40
31003;DHT22;23051;-6.372;106.786;2023-06-04T09:34:26;34.10;68.60
31003;DHT22;23051;-6.372;106.786;2023-06-04T09:36:44;34.10;68.60
31003;DHT22;23051;-6.372;106.786;2023-06-04T09:38:51;34.00;68.60
31003;DHT22;23051;-6.372;106.786;2023-06-04T09:40:52;33.90;68.80
31003;DHT22;23051;-6.372;106.786;2023-06-04T09:42:58;33.80;68.90
31003;DHT22;23051;-6.372;106.786;2023-06-04T09:45:03;33.70;69.10
31003;DHT22;23051;-6.372;106.786;2023-06-04T09:49:12;33.50;69.50
31003;DHT22;23051;-6.372;106.786;2023-06-04T09:51:16;33.60;69.60
31003;DHT22;23051;-6.372;106.786;2023-06-04T09:53:21;33.60;69.30
31003;DHT22;23051;-6.372;106.786;2023-06-04T09:55:29;33.70;69.10
31003;DHT22;23051;-6.372;106.786;2023-06-04T09:57:31;33.70;68.90
31003;DHT22;23051;-6.372;106.786;2023-06-04T09:59:39;33.60;69.00
31003;DHT22;23051;-6.372;106.786;2023-06-04T10:01:46;33.50;69.20
31003;DHT22;23051;-6.372;106.786;2023-06-04T10:03:51;33.40;69.40
31003;DHT22;23051;-6.372;106.786;2023-06-04T10:06:00;33.30;69.70
31003;DHT22;23051;-6.372;106.786;2023-06-04T10:08:06;33.10;70.00
31003;DHT22;23051;-6.372;106.786;2023-06-04T10:10:30;33.10;70.00
31003;DHT22;23051;-6.372;106.786;2023-06-04T10:12:38;33.30;69.60
31003;DHT22;23051;-6.372;106.786;2023-06-04T10:14:52;33.40;69.30
31003;DHT22;23051;-6.372;106.786;2023-06-04T10:16:57;33.30;69.20
31003;DHT22;23051;-6.372;106.786;2023-06-04T10:18:59;33.30;69.20
31003;DHT22;23051;-6.372;106.786;2023-06-04T10:21:02;33.20;69.40
31003;DHT22;23051;-6.372;106.786;2023-06-04T10:23:08;33.10;69.60
31003;DHT22;23051;-6.372;106.786;2023-06-04T10:25:12;33.00;69.80
31003;DHT22;23051;-6.372;106.786;2023-06-04T10:27:19;32.90;70.00
31003;DHT22;23051;-6.372;106.786;2023-06-04T10:29:25;32.80;70.40
31003;DHT22;23051;-6.372;106.786;2023-06-04T10:31:32;32.80;70.30
31003;DHT22;23051;-6.372;106.786;2023-06-04T10:33:39;32.80;70.20
31003;DHT22;23051;-6.372;106.786;2023-06-04T10:35:45;32.70;70.40
31003;DHT22;23051;-6.372;106.786;2023-06-04T10:37:50;32.60;70.50
31003;DHT22;23051;-6.372;106.786;2023-06-04T10:39:55;32.50;70.50
31003;DHT22;23051;-6.372;106.786;2023-06-04T10:42:05;32.50;70.60
31003;DHT22;23051;-6.372;106.786;2023-06-04T10:44:11;32.50;70.80
31003;DHT22;23051;-6.372;106.786;2023-06-04T10:46:18;32.50;70.70
31003;DHT22;23051;-6.372;106.786;2023-06-04T10:48:20;32.40;70.50
31003;DHT22;23051;-6.372;106.786;2023-06-04T10:50:21;32.40;70.60
31003;DHT22;23051;-6.372;106.786;2023-06-04T10:52:23;32.40;70.70
31003;DHT22;23051;-6.372;106.786;2023-06-04T10:54:25;32.40;70.70
31003;DHT22;23051;-6.372;106.786;2023-06-04T10:56:33;32.50;70.50
31003;DHT22;23051;-6.372;106.786;2023-06-04T10:58:42;32.60;70.10
31003;DHT22;23051;-6.372;106.786;2023-06-04T11:00:47;32.80;69.70
31003;DHT22;23051;-6.372;106.786;2023-06-04T11:03:01;33.00;69.20
31003;DHT22;23051;-6.372;106.786;2023-06-04T11:05:06;33.00;69.00
31003;DHT22;23051;-6.372;106.786;2023-06-04T11:07:12;33.00;69.70
31003;DHT22;23051;-6.372;106.786;2023-06-04T11:09:16;33.00;68.90
31003;DHT22;23051;-6.372;106.786;2023-06-04T11:11:24;33.00;68.90
31003;DHT22;23051;-6.372;106.786;2023-06-04T11:13:26;33.00;68.80
31003;DHT22;23051;-6.372;106.786;2023-06-04T11:15:57;33.10;68.70
31003;DHT22;23051;-6.372;106.786;2023-06-04T11:18:16;33.10;68.60
31003;DHT22;23051;-6.372;106.786;2023-06-04T11:20:20;33.00;68.90
31003;DHT22;23051;-6.372;106.786;2023-06-04T11:22:23;32.90;68.90
31003;DHT22;23051;-6.372;106.786;2023-06-04T11:24:45;33.10;68.80
31003;DHT22;23051;-6.372;106.786;2023-06-04T11:26:50;33.20;68.50
31003;DHT22;23051;-6.372;106.786;2023-06-04T11:31:24;33.10;68.40
31003;DHT22;23051;-6.372;106.786;2023-06-04T11:35:43;33.30;68.10
31003;DHT22;23051;-6.372;106.786;2023-06-04T11:37:53;33.50;68.60
31003;DHT22;23051;-6.372;106.786;2023-06-04T11:39:55;33.70;67.10
31003;DHT22;23051;-6.372;106.786;2023-06-04T11:42:05;33.80;66.60
31003;DHT22;23051;-6.372;106.786;2023-06-04T11:44:12;34.00;66.40
31003;DHT22;23051;-6.372;106.786;2023-06-04T11:48:25;34.00;66.20
31003;DHT22;23051;-6.372;106.786;2023-06-04T11:50:28;34.10;66.00
31003;DHT22;23051;-6.372;106.786;2023-06-04T11:52:30;34.10;65.90
31003;DHT22;23051;-6.372;106.786;2023-06-04T11:54:32;34.10;65.80
31003;DHT22;23051;-6.372;106.786;2023-06-04T11:56:42;34.10;65.80
31003;DHT22;23051;-6.372;106.786;2023-06-04T11:58:59;34.10;65.70
31003;DHT22;23051;-6.372;106.786;2023-06-04T12:01:14;34.30;65.50
31003;DHT22;23051;-6.372;106.786;2023-06-04T12:10:38;34.10;65.70
31003;DHT22;23051;-6.372;106.786;2023-06-04T12:19:50;33.80;66.10
31003;DHT22;23051;-6.372;106.786;2023-06-04T12:22:12;33.80;66.10
31003;DHT22;23051;-6.372;106.786;2023-06-04T12:24:14;33.80;66.20
31003;DHT22;23051;-6.372;106.786;2023-06-04T12:26:25;33.90;66.20
31003;DHT22;23051;-6.372;106.786;2023-06-04T12:28:32;33.90;66.20
31003;DHT22;23051;-6.372;106.786;2023-06-04T12:30:39;33.80;66.30
31003;DHT22;23051;-6.372;106.786;2023-06-04T12:32:41;33.80;66.30
31003;DHT22;23051;-6.372;106.786;2023-06-04T12:34:48;33.80;66.40
31003;DHT22;23051;-6.372;106.786;2023-06-04T12:36:54;33.70;66.20
31003;DHT22;23051;-6.372;106.786;2023-06-04T12:39:02;33.70;66.30
31003;DHT22;23051;-6.372;106.786;2023-06-04T12:41:04;33.80;66.20
31003;DHT22;23051;-6.372;106.786;2023-06-04T12:43:06;33.80;66.10
31003;DHT22;23051;-6.372;106.786;2023-06-04T12:45:11;33.70;66.20
31003;DHT22;23051;-6.372;106.786;2023-06-04T12:47:13;33.70;66.30
31003;DHT22;23051;-6.372;106.786;2023-06-04T12:49:15;33.70;66.40
31003;DHT22;23051;-6.372;106.786;2023-06-04T12:51:20;33.60;66.40
31003;DHT22;23051;-6.372;106.786;2023-06-04T12:53:21;33.60;66.50
31003;DHT22;23051;-6.372;106.786;2023-06-04T12:55:23;33.50;66.50
31003;DHT22;23051;-6.372;106.786;2023-06-04T12:57:25;33.50;66.70
31003;DHT22;23051;-6.372;106.786;2023-06-04T12:59:29;33.50;66.70
31003;DHT22;23051;-6.372;106.786;2023-06-04T13:01:34;33.50;66.70
31003;DHT22;23051;-6.372;106.786;2023-06-04T13:03:42;33.50;66.70
31003;DHT22;23051;-6.372;106.786;2023-06-04T13:05:47;33.50;66.70
31003;DHT22;23051;-6.372;106.786;2023-06-04T13:07:52;33.50;66.70
31003;DHT22;23051;-6.372;106.786;2023-06-04T13:09:57;33.50;66.70
31003;DHT22;23051;-6.372;106.786;2023-06-04T13:12:05;33.40;66.70
31003;DHT22;23051;-6.372;106.786;2023-06-04T13:14:08;33.40;66.90
31003;DHT22;23051;-6.372;106.786;2023-06-04T13:16:10;33.30;67.70
31003;DHT22;23051;-6.372;106.786;2023-06-04T13:18:14;33.30;66.90
31003;DHT22;23051;-6.372;106.786;2023-06-04T13:20:18;33.20;67.00
31003;DHT22;23051;-6.372;106.786;2023-06-04T13:22:20;33.30;67.10
31003;DHT22;23051;-6.372;106.786;2023-06-04T13:24:21;33.30;66.90
31003;DHT22;23051;-6.372;106.786;2023-06-04T13:26:25;33.30;66.90
31003;DHT22;23051;-6.372;106.786;2023-06-04T13:28:27;33.30;67.00
31003;DHT22;23051;-6.372;106.786;2023-06-04T13:30:29;33.30;66.90
31003;DHT22;23051;-6.372;106.786;2023-06-04T13:32:35;33.20;66.90